CheckWX is a tool to help pilots better visualize weather data.  It is not intended as a substitute for an official pre-flight weather briefing.

01:52:13 UTC

KGCN METAR
Grand Canyon National Park Airport
Grand Canyon, Arizona, USA
Current

58 mins ago

KGCN 150054Z AUTO 23013G20KT 10SM SCT100 29/04 A3019 RMK AO2 SLP118 T02940044
Observed
Jul-15 @ 00:54 UTC
Wind
  • 230° at 13 KTS
  • Gusting to 20 KTS
Visibility
10 SM
Flight Rules
VFR
Cloud Levels
  • Scattered at 10,000' AGL
Temperature
29°C / 84°F
Dewpoint
C / 39°F
Humidity
20%
Altimeter
30.19" Hg
Pressure
1022.32 hPa
Previous

2 hours ago

KGCN 142354Z AUTO 23010G22KT 10SM SCT090 29/06 A3019 RMK AO2 PK WND 21030/2332 SLP126 T02940061 10317 20289 58010
Observed
Jul-14 @ 23:54 UTC
Wind
  • 230° at 10 KTS
  • Gusting to 22 KTS
Visibility
10 SM
Flight Rules
VFR
Cloud Levels
  • Scattered at 9,000' AGL
Temperature
29°C / 84°F
Dewpoint
C / 43°F
Humidity
23%
Altimeter
30.19" Hg
Pressure
1022.32 hPa
Previous

3 hours ago

KGCN 142254Z 22012G24KT 10SM FEW100 29/06 A3021 RMK AO2 PK WND 21032/2203 SLP128 T02940056
Observed
Jul-14 @ 22:54 UTC
Wind
  • 220° at 12 KTS
  • Gusting to 24 KTS
Visibility
10 SM
Flight Rules
VFR
Cloud Levels
  • Few at 10,000' AGL
Temperature
29°C / 84°F
Dewpoint
C / 43°F
Humidity
23%
Altimeter
30.21" Hg
Pressure
1023.02 hPa